Time;durP1;ratioP1;P1;durP2;ratioP2;P2;SDS_P1;SDS_P2;PMS_P1;PMS_P2;Temp;Humidity;BMP_temperature;BMP_pressure;BME280_temperature;BME280_humidity;BME280_pressure;Samples;Min_cycle;Max_cycle;Signal;HPM_P1;HPM_P2
2022/01/28 00:01:44;;;;;;;;;;;;;;;2.45;100.00;97877.70;1578090;90;20225;-85
2022/01/28 00:04:13;;;;;;;;;;;;;;;2.45;100.00;97890.61;1578365;90;26167;-85
2022/01/28 00:06:40;;;;;;;;;;;;;;;2.47;100.00;97890.52;1575246;90;22655;-85
2022/01/28 00:09:09;;;;;;;;;;;;;;;2.48;100.00;97891.75;1574232;90;26668;-85
2022/01/28 00:11:38;;;;;;;;;;;;;;;2.48;100.00;97890.46;1577170;90;25368;-85
2022/01/28 00:19:47;;;;;;;;;;;;;;;2.48;100.00;97872.83;1576315;90;22031;-85
2022/01/28 00:38:13;;;;;;;;;;;;;;;2.54;100.00;97889.34;1577573;90;24493;-84
2022/01/28 00:40:37;;;;;;;;;;;;;;;2.53;100.00;97884.63;1576773;90;20493;-84
2022/01/28 00:43:09;;;;;;;;;;;;;;;2.55;100.00;97874.69;1576422;90;25032;-85
2022/01/28 00:45:35;;;;;;;;;;;;;;;2.53;100.00;97886.37;1575182;90;22129;-85
2022/01/28 00:48:01;;;;;;;;;;;;;;;2.53;100.00;97879.91;1574813;90;26097;-85
2022/01/28 00:50:27;;;;;;;;;;;;;;;2.56;100.00;97884.11;1578437;90;20302;-85
2022/01/28 00:52:55;;;;;;;;;;;;;;;2.56;100.00;97873.33;1576635;90;20315;-85
2022/01/28 00:55:27;;;;;;;;;;;;;;;2.58;100.00;97870.66;1575080;90;24980;-84
2022/01/28 00:57:53;;;;;;;;;;;;;;;2.60;100.00;97879.17;1578884;90;21994;-84
2022/01/28 01:00:25;;;;;;;;;;;;;;;2.60;100.00;97872.27;1577448;90;27080;-85
2022/01/28 01:02:51;;;;;;;;;;;;;;;2.62;100.00;97886.41;1575084;90;24573;-85
2022/01/28 01:05:22;;;;;;;;;;;;;;;2.62;100.00;97882.05;1575526;90;20224;-85
2022/01/28 01:07:48;;;;;;;;;;;;;;;2.63;100.00;97886.31;1574234;90;25065;-85
2022/01/28 01:10:14;;;;;;;;;;;;;;;2.63;100.00;97879.86;1575052;90;21991;-85
2022/01/28 01:12:47;;;;;;;;;;;;;;;2.65;100.00;97894.00;1577656;90;26070;-84
2022/01/28 01:15:09;;;;;;;;;;;;;;;2.64;100.00;97895.75;1574168;90;24307;-85
2022/01/28 01:17:44;;;;;;;;;;;;;;;2.66;100.00;97894.39;1577503;90;20273;-85
2022/01/28 01:20:19;;;;;;;;;;;;;;;2.66;100.00;97895.23;1575583;89;25095;-85
2022/01/28 01:22:38;;;;;;;;;;;;;;;2.67;100.00;97907.25;1580740;90;22036;-85
2022/01/28 01:25:04;;;;;;;;;;;;;;;2.65;100.00;97913.37;1573478;90;26283;-85
2022/01/28 01:27:30;;;;;;;;;;;;;;;2.65;100.00;97907.76;1575752;90;24529;-85
2022/01/28 01:29:56;;;;;;;;;;;;;;;2.64;100.00;97903.49;1578483;90;20256;-85
2022/01/28 01:32:22;;;;;;;;;;;;;;;2.61;100.00;97907.52;1578827;90;24953;-85
2022/01/28 01:34:48;;;;;;;;;;;;;;;2.61;100.00;97907.52;1579384;90;22048;-85
2022/01/28 01:37:15;;;;;;;;;;;;;;;2.61;100.00;97898.48;1577896;90;26657;-85
2022/01/28 01:39:42;;;;;;;;;;;;;;;2.61;100.00;97901.07;1579838;90;24497;-85
2022/01/28 01:42:21;;;;;;;;;;;;;;;2.61;100.00;97904.95;1577520;90;20453;-85
2022/01/28 01:52:21;;;;;;;;;;;;;;;2.62;100.00;97889.00;1524241;93;24402;-85
2022/01/28 01:54:50;;;;;;;;;;;;;;;2.57;100.00;97891.77;1525869;93;20831;-85
2022/01/28 01:57:15;;;;;;;;;;;;;;;2.54;100.00;97902.25;1527091;93;24954;-85
2022/01/28 01:59:42;;;;;;;;;;;;;;;2.50;100.00;97893.82;1529286;93;22104;-85
2022/01/28 02:02:08;;;;;;;;;;;;;;;2.48;100.00;97902.08;1569503;90;26086;-85
2022/01/28 02:04:35;;;;;;;;;;;;;;;2.46;100.00;97892.27;1579455;90;24522;-85
2022/01/28 02:07:01;;;;;;;;;;;;;;;2.46;100.00;97900.02;1575154;88;20254;-85
2022/01/28 02:09:27;;;;;;;;;;;;;;;2.45;100.00;97890.61;1574863;90;25017;-85
2022/01/28 02:11:53;;;;;;;;;;;;;;;2.46;100.00;97870.31;1579190;90;20985;-85
2022/01/28 02:14:19;;;;;;;;;;;;;;;2.44;100.00;97868.28;1576276;90;25992;-85
2022/01/28 02:16:45;;;;;;;;;;;;;;;2.44;100.00;97868.28;1574219;90;24491;-85
2022/01/28 02:19:11;;;;;;;;;;;;;;;2.41;100.00;97858.52;1574931;90;20238;-85
2022/01/28 02:21:49;;;;;;;;;;;;;;;2.41;100.00;97853.36;1576562;90;25861;-85
2022/01/28 02:24:26;;;;;;;;;;;;;;;2.38;100.00;97846.61;1578744;90;22742;-85
2022/01/28 02:26:51;;;;;;;;;;;;;;;2.37;100.00;97858.29;1576432;90;26860;-85
2022/01/28 02:29:26;;;;;;;;;;;;;;;2.37;100.00;97855.70;1579874;90;24516;-85
2022/01/28 02:31:51;;;;;;;;;;;;;;;2.35;100.00;97857.52;1570477;90;20280;-85
2022/01/28 02:34:17;;;;;;;;;;;;;;;2.34;100.00;97851.98;1576200;90;25070;-85
2022/01/28 02:36:43;;;;;;;;;;;;;;;2.32;100.00;97848.63;1578033;90;21958;-85
2022/01/28 02:39:11;;;;;;;;;;;;;;;2.32;100.00;97864.12;1573358;90;26048;-85
2022/01/28 02:41:41;;;;;;;;;;;;;;;2.32;100.00;97875.73;1578268;90;24014;-85
2022/01/28 02:46:52;;;;;;;;;;;;;;;2.33;100.00;97885.16;1576652;90;25687;-85
2022/01/28 02:49:10;;;;;;;;;;;;;;;2.33;100.00;97886.00;1577591;90;22021;-85
2022/01/28 02:51:36;;;;;;;;;;;;;;;2.35;100.00;97877.72;1577627;90;26189;-85
2022/01/28 02:54:15;;;;;;;;;;;;;;;2.36;100.00;97884.56;1574629;90;25279;-85
2022/01/28 02:56:36;;;;;;;;;;;;;;;2.37;100.00;97893.14;1576559;90;20534;-84
2022/01/28 02:59:03;;;;;;;;;;;;;;;2.39;100.00;97888.77;1578227;90;25036;-84
2022/01/28 03:01:29;;;;;;;;;;;;;;;2.41;100.00;97880.47;1576803;90;22053;-84
2022/01/28 03:03:56;;;;;;;;;;;;;;;2.42;100.00;97886.02;1574157;90;21152;-84
2022/01/28 03:06:22;;;;;;;;;;;;;;;2.42;100.00;97886.86;1578177;90;24515;-85
2022/01/28 03:09:20;;;;;;;;;;;;;;;2.44;100.00;97895.84;1574669;90;20275;-84
2022/01/28 03:19:25;;;;;;;;;;;;;;;2.47;100.00;97889.23;1576785;90;24592;-84
2022/01/28 03:21:57;;;;;;;;;;;;;;;2.47;100.00;97902.98;1576189;90;20262;-84
2022/01/28 03:24:27;;;;;;;;;;;;;;;2.47;100.00;97896.98;1576560;90;25650;-84
2022/01/28 03:27:04;;;;;;;;;;;;;;;2.47;100.00;97904.27;1578332;90;22060;-84
2022/01/28 03:29:21;;;;;;;;;;;;;;;2.47;100.00;97908.14;1575447;90;27035;-84
2022/01/28 03:31:47;;;;;;;;;;;;;;;2.48;100.00;97897.37;1578470;90;24638;-84
2022/01/28 03:34:13;;;;;;;;;;;;;;;2.49;100.00;97902.47;1574082;90;20631;-83
2022/01/28 03:36:39;;;;;;;;;;;;;;;2.50;100.00;97902.02;1574909;90;25124;-84
2022/01/28 03:39:08;;;;;;;;;;;;;;;2.50;100.00;97899.44;1573009;90;22035;-84
2022/01/28 03:41:33;;;;;;;;;;;;;;;2.51;100.00;97899.34;1580601;90;26193;-84
2022/01/28 03:44:00;;;;;;;;;;;;;;;2.52;100.00;97902.31;1577721;90;20408;-84
2022/01/28 03:46:30;;;;;;;;;;;;;;;2.53;100.00;97898.83;1584339;90;20235;-84
2022/01/28 03:48:56;;;;;;;;;;;;;;;2.53;100.00;97907.87;1577812;90;25040;-84
2022/01/28 03:51:23;;;;;;;;;;;;;;;2.55;100.00;97903.94;1577066;90;21984;-84
2022/01/28 03:53:49;;;;;;;;;;;;;;;2.56;100.00;97906.91;1572380;90;26115;-84
2022/01/28 03:56:15;;;;;;;;;;;;;;;2.57;100.00;97901.26;1575870;90;24448;-84
2022/01/28 03:58:42;;;;;;;;;;;;;;;2.56;100.00;97909.48;1577216;90;20249;-84
2022/01/28 04:01:15;;;;;;;;;;;;;;;2.58;100.00;97905.52;1560362;90;25040;-84
2022/01/28 04:03:42;;;;;;;;;;;;;;;2.58;100.00;97903.78;1574874;90;22181;-84
2022/01/28 04:11:35;;;;;;;;;;;;;;;2.60;100.00;97900.68;1550314;91;20293;-84
2022/01/28 04:19:28;;;;;;;;;;;;;;;2.61;100.00;97886.86;1565872;91;26161;-84
2022/01/28 04:21:54;;;;;;;;;;;;;;;2.62;100.00;97878.18;1565947;91;24384;-84
2022/01/28 04:24:20;;;;;;;;;;;;;;;2.63;100.00;97885.48;1566801;90;20242;-84
2022/01/28 04:26:46;;;;;;;;;;;;;;;2.65;100.00;97887.55;1566837;91;24985;-84
2022/01/28 04:29:16;;;;;;;;;;;;;;;2.65;100.00;97896.59;1565841;91;22090;-84
2022/01/28 04:31:46;;;;;;;;;;;;;;;2.68;100.00;97884.80;1566765;91;26105;-84
2022/01/28 04:34:11;;;;;;;;;;;;;;;2.64;100.00;97882.83;1564890;91;24532;-84
2022/01/28 04:36:46;;;;;;;;;;;;;;;2.67;100.00;97884.45;1566728;90;20311;-83
2022/01/28 04:39:51;;;;;;;;;;;;;;;2.68;100.00;97884.80;1566835;91;25096;-84
2022/01/28 04:41:51;;;;;;;;;;;;;;;2.69;100.00;97885.19;1556078;91;21989;-84
2022/01/28 04:44:13;;;;;;;;;;;;;;;2.70;100.00;97882.55;1565478;91;25588;-84
2022/01/28 04:46:45;;;;;;;;;;;;;;;2.73;100.00;97888.00;1566667;91;24591;-84
2022/01/28 04:49:13;;;;;;;;;;;;;;;2.72;100.00;97888.94;1565819;91;20356;-84
2022/01/28 04:57:23;;;;;;;;;;;;;;;2.77;100.00;97907.19;1565064;91;26019;-84
2022/01/28 05:00:30;;;;;;;;;;;;;;;2.75;100.00;97906.87;1567596;91;24480;-83
2022/01/28 05:02:20;;;;;;;;;;;;;;;2.78;100.00;97906.73;1553314;91;20512;-84
2022/01/28 05:15:39;;;;;;;;;;;;;;;2.77;100.00;97915.39;1579261;90;20495;-84
2022/01/28 05:28:47;;;;;;;;;;;;;;;2.65;100.00;97928.42;1574745;90;20311;-84
2022/01/28 05:31:12;;;;;;;;;;;;;;;2.60;100.00;97939.42;1577785;89;25066;-84
2022/01/28 05:33:39;;;;;;;;;;;;;;;2.55;100.00;97942.67;1578105;90;22059;-84
2022/01/28 05:36:05;;;;;;;;;;;;;;;2.50;100.00;97954.96;1573953;90;26112;-84
2022/01/28 05:38:31;;;;;;;;;;;;;;;2.44;100.00;97946.19;1577626;90;24419;-84
2022/01/28 05:40:57;;;;;;;;;;;;;;;2.39;100.00;97959.77;1563993;90;20237;-84
2022/01/28 05:43:23;;;;;;;;;;;;;;;2.33;100.00;97956.16;1573537;90;25011;-84
2022/01/28 05:45:49;;;;;;;;;;;;;;;2.29;100.00;97958.02;1579877;90;22003;-84
2022/01/28 05:48:16;;;;;;;;;;;;;;;2.23;100.00;97965.23;1577179;90;26029;-84
2022/01/28 05:50:42;;;;;;;;;;;;;;;2.19;100.00;97968.82;1576247;90;24515;-84
2022/01/28 05:53:09;;;;;;;;;;;;;;;2.15;100.00;97981.03;1589782;90;20320;-85
2022/01/28 05:55:35;;;;;;;;;;;;;;;2.13;100.00;97988.48;1575398;90;24949;-84
2022/01/28 05:58:01;;;;;;;;;;;;;;;2.08;100.00;97984.77;1581656;90;22049;-85
2022/01/28 06:00:27;;;;;;;;;;;;;;;2.05;100.00;98002.54;1574801;90;26098;-84
2022/01/28 06:02:53;;;;;;;;;;;;;;;1.99;100.00;98000.21;1576260;90;24494;-84
2022/01/28 06:05:21;;;;;;;;;;;;;;;1.93;100.00;97999.18;1578173;90;20220;-85
2022/01/28 06:07:47;;;;;;;;;;;;;;;1.89;100.00;97993.77;1574479;90;25021;-85
2022/01/28 06:10:17;;;;;;;;;;;;;;;1.85;100.00;98003.84;1566356;91;21976;-85
2022/01/28 06:12:44;;;;;;;;;;;;;;;1.82;100.00;98000.08;1565882;91;25997;-85
2022/01/28 06:15:11;;;;;;;;;;;;;;;1.78;100.00;98002.41;1565638;91;24691;-85
2022/01/28 06:17:37;;;;;;;;;;;;;;;1.77;100.00;98017.49;1565796;91;20254;-85
2022/01/28 06:20:06;;;;;;;;;;;;;;;1.75;100.00;98011.55;1565758;91;25043;-85
2022/01/28 06:22:32;;;;;;;;;;;;;;;1.76;100.00;98006.78;1566289;91;21970;-85
2022/01/28 06:24:58;;;;;;;;;;;;;;;1.79;100.00;98016.15;1566345;91;26052;-85
2022/01/28 06:27:24;;;;;;;;;;;;;;;1.80;100.00;98019.13;1566318;90;24466;-84
2022/01/28 06:29:53;;;;;;;;;;;;;;;1.82;100.00;98012.14;1566457;91;20397;-84
2022/01/28 06:32:19;;;;;;;;;;;;;;;1.85;100.00;98019.31;1566605;91;25267;-85
2022/01/28 06:34:45;;;;;;;;;;;;;;;1.88;100.00;98030.79;1566737;91;20476;-85
2022/01/28 06:37:11;;;;;;;;;;;;;;;1.91;100.00;98036.28;1566100;90;26123;-84
2022/01/28 06:39:38;;;;;;;;;;;;;;;1.94;100.00;98025.38;1564639;91;20410;-85
2022/01/28 06:42:04;;;;;;;;;;;;;;;1.98;100.00;98035.95;1566292;90;20317;-84
2022/01/28 06:44:31;;;;;;;;;;;;;;;2.00;100.00;98037.19;1566022;90;25035;-84
2022/01/28 06:46:57;;;;;;;;;;;;;;;2.03;100.00;98032.72;1566610;91;21950;-84
2022/01/28 06:49:29;;;;;;;;;;;;;;;2.06;100.00;98034.34;1566320;91;26787;-84
2022/01/28 06:51:57;;;;;;;;;;;;;;;2.08;100.00;98041.55;1566136;91;24544;-84
2022/01/28 06:54:23;;;;;;;;;;;;;;;2.09;100.00;98027.30;1566483;91;20261;-84
2022/01/28 06:56:49;;;;;;;;;;;;;;;2.12;100.00;98030.22;1566064;91;25070;-84
2022/01/28 06:59:17;;;;;;;;;;;;;;;2.14;100.00;98035.30;1566028;91;20399;-84
2022/01/28 07:01:55;;;;;;;;;;;;;;;2.15;100.00;98033.95;1565788;91;26140;-84
2022/01/28 07:04:21;;;;;;;;;;;;;;;2.18;100.00;98036.86;1566114;91;24744;-84
2022/01/28 07:06:47;;;;;;;;;;;;;;;2.20;100.00;98033.30;1566113;91;20479;-84
2022/01/28 07:09:14;;;;;;;;;;;;;;;2.22;100.00;98045.70;1572003;90;25130;-84
2022/01/28 07:11:40;;;;;;;;;;;;;;;2.27;100.00;98037.30;1576936;90;22141;-84
2022/01/28 07:14:06;;;;;;;;;;;;;;;2.31;100.00;98044.00;1580048;90;21145;-84
2022/01/28 07:16:32;;;;;;;;;;;;;;;2.33;100.00;98047.38;1577665;90;24456;-84
2022/01/28 07:18:58;;;;;;;;;;;;;;;2.36;100.00;98043.35;1577002;90;20239;-84
2022/01/28 07:21:24;;;;;;;;;;;;;;;2.38;100.00;98047.16;1576307;90;25027;-84
2022/01/28 07:23:50;;;;;;;;;;;;;;;2.40;100.00;98052.63;1578139;90;20898;-84
2022/01/28 07:26:16;;;;;;;;;;;;;;;2.42;100.00;98045.67;1578844;90;26074;-83
2022/01/28 07:28:42;;;;;;;;;;;;;;;2.42;100.00;98044.38;1572122;90;24411;-84
2022/01/28 07:31:10;;;;;;;;;;;;;;;2.46;100.00;98052.82;1575779;90;20550;-84
2022/01/28 07:33:36;;;;;;;;;;;;;;;2.47;100.00;98053.21;1578598;90;25757;-84
2022/01/28 07:36:02;;;;;;;;;;;;;;;2.47;100.00;98051.92;1572575;90;21937;-84
2022/01/28 07:38:28;;;;;;;;;;;;;;;2.48;100.00;98052.31;1579263;90;26056;-84
2022/01/28 07:40:57;;;;;;;;;;;;;;;2.50;100.00;98058.27;1561888;90;24632;-84
2022/01/28 07:43:22;;;;;;;;;;;;;;;2.49;100.00;98066.46;1575088;90;20434;-84
2022/01/28 07:45:48;;;;;;;;;;;;;;;2.50;100.00;98066.01;1575920;90;20280;-84
2022/01/28 07:48:14;;;;;;;;;;;;;;;2.52;100.00;98073.22;1577438;90;22095;-84
2022/01/28 07:50:40;;;;;;;;;;;;;;;2.53;100.00;98079.62;1578188;90;26158;-84
2022/01/28 07:53:08;;;;;;;;;;;;;;;2.55;100.00;98086.47;1574045;90;20283;-84
2022/01/28 07:55:34;;;;;;;;;;;;;;;2.58;100.00;98092.78;1576720;90;20511;-84
2022/01/28 07:58:06;;;;;;;;;;;;;;;2.57;100.00;98094.52;1575633;90;25896;-84
2022/01/28 08:00:33;;;;;;;;;;;;;;;2.60;100.00;98097.44;1575684;90;22054;-84
2022/01/28 08:02:59;;;;;;;;;;;;;;;2.60;100.00;98101.31;1573432;90;26021;-84
2022/01/28 08:05:25;;;;;;;;;;;;;;;2.61;100.00;98099.96;1578819;90;24409;-84
2022/01/28 08:07:54;;;;;;;;;;;;;;;2.63;100.00;98098.58;1575720;90;20195;-84
2022/01/28 08:10:25;;;;;;;;;;;;;;;2.63;100.00;98103.30;1560129;89;20486;-84
2022/01/28 08:13:00;;;;;;;;;;;;;;;2.64;100.00;98094.65;1576001;90;22852;-84
2022/01/28 08:15:25;;;;;;;;;;;;;;;2.66;100.00;98112.22;1581746;90;26087;-84
2022/01/28 08:17:51;;;;;;;;;;;;;;;2.67;100.00;98106.61;1581401;90;24395;-84
2022/01/28 08:20:17;;;;;;;;;;;;;;;2.68;100.00;98109.10;1574701;90;20293;-84
2022/01/28 08:22:45;;;;;;;;;;;;;;;2.71;100.00;98109.44;1573141;90;25061;-84
2022/01/28 08:25:11;;;;;;;;;;;;;;;2.70;100.00;98107.30;1572614;90;21994;-84
2022/01/28 08:27:41;;;;;;;;;;;;;;;2.72;100.00;98118.42;1577789;90;21687;-84
2022/01/28 08:30:14;;;;;;;;;;;;;;;2.74;100.00;98120.47;1576630;90;24461;-83
2022/01/28 08:32:41;;;;;;;;;;;;;;;2.78;100.00;98119.90;1579600;90;20237;-85
2022/01/28 08:35:07;;;;;;;;;;;;;;;2.78;100.00;98118.61;1580616;90;24991;-85
2022/01/28 08:37:33;;;;;;;;;;;;;;;2.79;100.00;98124.98;1579178;90;21965;-85
2022/01/28 08:40:01;;;;;;;;;;;;;;;2.80;100.00;98125.37;1558849;90;21256;-85
2022/01/28 08:42:27;;;;;;;;;;;;;;;2.84;100.00;98129.94;1580085;90;24414;-85
2022/01/28 08:44:53;;;;;;;;;;;;;;;2.86;100.00;98130.27;1559909;90;20456;-85
2022/01/28 08:47:22;;;;;;;;;;;;;;;2.90;100.00;98136.13;1578700;90;25628;-84
2022/01/28 08:49:48;;;;;;;;;;;;;;;2.90;100.00;98143.44;1574904;90;22000;-85
2022/01/28 08:52:15;;;;;;;;;;;;;;;2.92;100.00;98142.09;1582300;90;26033;-85
2022/01/28 08:54:41;;;;;;;;;;;;;;;2.94;100.00;98148.88;1580973;90;24398;-85
2022/01/28 08:57:08;;;;;;;;;;;;;;;2.95;100.00;98149.24;1579336;90;20486;-85
2022/01/28 08:59:36;;;;;;;;;;;;;;;2.98;100.00;98152.16;1582286;90;24995;-84
2022/01/28 09:02:03;;;;;;;;;;;;;;;3.00;100.00;98162.44;1583145;88;21963;-84
2022/01/28 09:04:29;;;;;;;;;;;;;;;3.00;100.00;98158.08;1592519;88;25961;-84
2022/01/28 09:06:55;;;;;;;;;;;;;;;3.01;100.00;98167.52;1593993;90;24473;-84
2022/01/28 09:09:21;;;;;;;;;;;;;;;3.03;100.00;98170.05;1593191;88;20175;-84
2022/01/28 09:12:05;;;;;;;;;;;;;;;3.00;100.00;98164.55;1594564;89;20304;-84
2022/01/28 09:14:21;;;;;;;;;;;;;;;3.00;100.00;98165.02;1569715;91;22074;-85
2022/01/28 09:16:47;;;;;;;;;;;;;;;3.00;100.00;98163.73;1586270;90;26008;-84
2022/01/28 09:19:14;;;;;;;;;;;;;;;2.97;100.00;98169.02;1568125;89;24562;-84
2022/01/28 09:21:40;;;;;;;;;;;;;;;2.98;100.00;98172.84;1585994;90;20436;-84
2022/01/28 09:24:06;;;;;;;;;;;;;;;2.97;100.00;98183.23;1582842;90;25148;-85
2022/01/28 09:26:36;;;;;;;;;;;;;;;2.95;100.00;98182.00;1559917;90;20204;-84
2022/01/28 09:29:03;;;;;;;;;;;;;;;2.95;100.00;98191.05;1577181;90;26849;-85
2022/01/28 09:31:31;;;;;;;;;;;;;;;2.93;100.00;98196.30;1576853;91;24456;-84
2022/01/28 09:33:58;;;;;;;;;;;;;;;2.92;100.00;98202.37;1593611;89;20167;-84
2022/01/28 09:36:24;;;;;;;;;;;;;;;2.88;100.00;98199.54;1595155;89;25047;-84
2022/01/28 09:38:50;;;;;;;;;;;;;;;2.83;100.00;98201.48;1595360;89;21977;-85
2022/01/28 09:41:16;;;;;;;;;;;;;;;2.82;100.00;98201.09;1599533;87;21011;-85
2022/01/28 09:43:46;;;;;;;;;;;;;;;2.80;100.00;98201.59;1592180;88;24613;-85
2022/01/28 09:46:14;;;;;;;;;;;;;;;2.78;100.00;98205.98;1595596;89;20187;-84
2022/01/28 09:48:40;;;;;;;;;;;;;;;2.75;100.00;98202.25;1597219;88;25139;-84
2022/01/28 09:51:06;;;;;;;;;;;;;;;2.73;100.00;98207.92;1594516;89;22061;-85
2022/01/28 09:53:33;;;;;;;;;;;;;;;2.70;100.00;98211.94;1595235;89;25974;-85
2022/01/28 09:55:59;;;;;;;;;;;;;;;2.67;100.00;98214.66;1591331;88;24438;-85
2022/01/28 09:58:25;;;;;;;;;;;;;;;2.65;100.00;98211.29;1592860;89;20343;-84
2022/01/28 10:00:51;;;;;;;;;;;;;;;2.64;100.00;98211.34;1594958;88;25019;-84
2022/01/28 10:03:17;;;;;;;;;;;;;;;2.61;100.00;98215.36;1594030;89;22014;-84
2022/01/28 10:05:46;;;;;;;;;;;;;;;2.56;100.00;98216.84;1591731;89;26071;-85
2022/01/28 10:08:17;;;;;;;;;;;;;;;2.53;100.00;98215.66;1579899;89;24547;-84
2022/01/28 10:10:48;;;;;;;;;;;;;;;2.50;100.00;98219.23;1580656;89;20251;-84
2022/01/28 10:13:18;;;;;;;;;;;;;;;2.49;100.00;98233.48;1580558;89;25031;-85
2022/01/28 10:15:45;;;;;;;;;;;;;;;2.46;100.00;98231.02;1588690;89;22089;-84
2022/01/28 10:18:12;;;;;;;;;;;;;;;2.46;100.00;98238.31;1580088;89;26141;-84
2022/01/28 10:20:40;;;;;;;;;;;;;;;2.45;100.00;98239.69;1582732;89;24501;-84
2022/01/28 10:23:10;;;;;;;;;;;;;;;2.47;100.00;98236.58;1588524;88;20238;-85
2022/01/28 10:25:38;;;;;;;;;;;;;;;2.48;100.00;98241.69;1585135;89;25034;-84
2022/01/28 10:28:05;;;;;;;;;;;;;;;2.48;100.00;98239.55;1574769;89;22099;-84
2022/01/28 10:30:38;;;;;;;;;;;;;;;2.49;100.00;98242.53;1577958;89;25422;-84
2022/01/28 10:33:10;;;;;;;;;;;;;;;2.52;100.00;98248.40;1544833;90;24602;-84
2022/01/28 10:35:36;;;;;;;;;;;;;;;2.51;100.00;98245.87;1550673;90;20314;-84
2022/01/28 10:38:03;;;;;;;;;;;;;;;2.53;100.00;98243.62;1537863;92;20444;-84
2022/01/28 10:40:31;;;;;;;;;;;;;;;2.57;100.00;98249.50;1541437;92;21780;-84
2022/01/28 10:42:57;;;;;;;;;;;;;;;2.62;100.00;98251.92;1544680;92;26071;-83
2022/01/28 10:45:28;;;;;;;;;;;;;;;2.66;100.00;98250.44;1546871;92;24478;-84
2022/01/28 10:47:56;;;;;;;;;;;;;;;2.69;100.00;98253.33;1545134;92;20473;-84
2022/01/28 10:50:27;;;;;;;;;;;;;;;2.73;100.00;98255.72;1545115;92;25100;-84
2022/01/28 10:52:58;;;;;;;;;;;;;;;2.74;100.00;98270.77;1548403;92;21960;-84
2022/01/28 10:55:24;;;;;;;;;;;;;;;2.71;100.00;98262.71;1536850;92;26133;-84
2022/01/28 10:58:00;;;;;;;;;;;;;;;2.73;100.00;98251.84;1537636;92;24532;-84
2022/01/28 11:00:30;;;;;;;;;;;;;;;2.75;100.00;98258.24;1546122;92;20216;-84
2022/01/28 11:03:05;;;;;;;;;;;;;;;2.83;100.00;98269.12;1550133;92;24974;-84
2022/01/28 11:05:40;;;;;;;;;;;;;;;2.86;100.00;98256.90;1546939;92;22129;-84
2022/01/28 11:08:07;;;;;;;;;;;;;;;2.89;100.00;98265.80;1543536;92;26018;-84
2022/01/28 11:10:34;;;;;;;;;;;;;;;2.95;100.00;98260.38;1572631;89;24616;-84
2022/01/28 11:13:01;;;;;;;;;;;;;;;2.98;100.00;98258.58;1593088;89;20330;-84
2022/01/28 11:15:28;;;;;;;;;;;;;;;3.03;100.00;98274.73;1589927;88;24959;-84
2022/01/28 11:17:55;;;;;;;;;;;;;;;3.04;100.00;98273.84;1594545;89;22030;-84
2022/01/28 11:20:22;;;;;;;;;;;;;;;3.06;100.00;98290.10;1595291;89;26033;-84
2022/01/28 11:22:56;;;;;;;;;;;;;;;3.06;100.00;98274.59;1597647;88;24477;-84
2022/01/28 11:25:35;;;;;;;;;;;;;;;3.05;100.00;98276.37;1589980;89;20244;-84
2022/01/28 11:27:59;;;;;;;;;;;;;;;3.08;100.00;98281.39;1592072;88;25165;-84
2022/01/28 11:30:31;;;;;;;;;;;;;;;3.09;100.00;98275.77;1598623;89;22655;-84
2022/01/28 11:33:08;;;;;;;;;;;;;;;3.11;100.00;98282.55;1596762;88;26033;-84
2022/01/28 11:35:45;;;;;;;;;;;;;;;3.13;100.00;98276.87;1590824;89;24856;-84
2022/01/28 11:38:31;;;;;;;;;;;;;;;3.14;100.00;98286.31;1589292;89;20224;-84
2022/01/28 11:40:58;;;;;;;;;;;;;;;3.11;100.00;98281.25;1589089;89;25023;-84
2022/01/28 11:43:25;;;;;;;;;;;;;;;3.06;100.00;98278.47;1582211;89;21956;-84
2022/01/28 11:46:08;;;;;;;;;;;;;;;3.04;100.00;98276.42;1594283;89;26010;-84
2022/01/28 11:51:26;;;;;;;;;;;;;;;3.04;100.00;98298.39;1579943;89;20299;-84
2022/01/28 11:53:56;;;;;;;;;;;;;;;2.98;100.00;98296.06;1596534;88;25012;-84
2022/01/28 11:56:25;;;;;;;;;;;;;;;2.97;100.00;98298.25;1571887;91;22577;-84
2022/01/28 11:58:52;;;;;;;;;;;;;;;2.96;100.00;98294.82;1578886;89;26057;-84
2022/01/28 12:01:20;;;;;;;;;;;;;;;2.95;100.00;98301.73;1582860;89;23953;-84
2022/01/28 12:03:46;;;;;;;;;;;;;;;2.98;100.00;98303.81;1570824;89;20239;-84
2022/01/28 12:06:12;;;;;;;;;;;;;;;2.99;100.00;98310.67;1583685;89;20323;-84
2022/01/28 12:08:41;;;;;;;;;;;;;;;3.03;100.00;98315.64;1586437;89;22056;-84
2022/01/28 12:11:09;;;;;;;;;;;;;;;3.05;100.00;98303.52;1577290;89;26041;-84
2022/01/28 12:14:02;;;;;;;;;;;;;;;3.08;100.00;98315.45;1581080;89;24721;-84
2022/01/28 12:16:21;;;;;;;;;;;;;;;3.10;100.00;98311.91;1584506;89;20235;-84
2022/01/28 12:18:56;;;;;;;;;;;;;;;3.10;100.00;98309.77;1556938;89;25393;-85
2022/01/28 12:21:31;;;;;;;;;;;;;;;3.11;100.00;98310.17;1579949;89;22177;-84
2022/01/28 12:24:16;;;;;;;;;;;;;;;3.12;100.00;98310.53;1595002;89;26671;-84
2022/01/28 12:27:00;;;;;;;;;;;;;;;3.12;100.00;98323.01;1591508;89;24425;-85
2022/01/28 12:29:30;;;;;;;;;;;;;;;3.12;100.00;98313.12;1595650;88;20256;-84
2022/01/28 12:31:57;;;;;;;;;;;;;;;3.09;100.00;98328.77;1589318;88;25037;-84
2022/01/28 12:34:24;;;;;;;;;;;;;;;3.08;100.00;98323.20;1567018;90;22228;-85
2022/01/28 12:36:50;;;;;;;;;;;;;;;3.07;100.00;98324.11;1597928;89;26110;-84
2022/01/28 12:39:32;;;;;;;;;;;;;;;3.08;100.00;98328.38;1592323;89;24977;-84
2022/01/28 12:42:02;;;;;;;;;;;;;;;3.09;100.00;98324.89;1593489;89;20236;-84
2022/01/28 12:44:19;;;;;;;;;;;;;;;3.05;100.00;98321.61;1594743;88;25324;-85
2022/01/28 12:46:47;;;;;;;;;;;;;;;3.05;100.00;98326.78;1588815;89;22077;-84
2022/01/28 12:49:13;;;;;;;;;;;;;;;3.03;100.00;98321.27;1593099;89;26169;-84
2022/01/28 12:51:40;;;;;;;;;;;;;;;2.98;100.00;98327.08;1608007;88;24132;-84
2022/01/28 12:54:06;;;;;;;;;;;;;;;2.93;100.00;98338.91;1588977;89;21154;-84
2022/01/28 12:56:34;;;;;;;;;;;;;;;2.88;100.00;98340.39;1596793;89;24949;-84
2022/01/28 12:59:03;;;;;;;;;;;;;;;2.84;100.00;98353.47;1592876;89;22049;-84
2022/01/28 13:01:29;;;;;;;;;;;;;;;2.80;100.00;98349.33;1590232;89;26066;-84
2022/01/28 13:04:09;;;;;;;;;;;;;;;2.75;100.00;98348.67;1591877;89;24486;-84
2022/01/28 13:09:17;;;;;;;;;;;;;;;2.63;100.00;98360.33;1593807;89;25656;-84
2022/01/28 13:11:48;;;;;;;;;;;;;;;2.59;100.00;98361.36;1592726;89;22935;-84
2022/01/28 13:14:15;;;;;;;;;;;;;;;2.56;100.00;98355.04;1589896;89;26162;-84
2022/01/28 13:16:44;;;;;;;;;;;;;;;2.58;100.00;98364.00;1595078;89;24121;-84
2022/01/28 13:19:13;;;;;;;;;;;;;;;2.61;100.00;98366.03;1597362;89;20237;-84
2022/01/28 13:21:41;;;;;;;;;;;;;;;2.61;100.00;98374.23;1592379;89;24526;-84
2022/01/28 13:24:14;;;;;;;;;;;;;;;2.62;100.00;98363.00;1595418;89;22175;-84
2022/01/28 13:26:42;;;;;;;;;;;;;;;2.64;100.00;98366.34;1593417;89;26055;-84
2022/01/28 13:29:09;;;;;;;;;;;;;;;2.65;100.00;98371.45;1592960;88;24639;-84
2022/01/28 13:31:36;;;;;;;;;;;;;;;2.65;100.00;98367.59;1588646;89;20577;-84
2022/01/28 13:34:05;;;;;;;;;;;;;;;2.67;100.00;98377.86;1592857;89;25212;-84
2022/01/28 13:36:46;;;;;;;;;;;;;;;2.68;100.00;98378.23;1591924;88;23743;-84
2022/01/28 13:39:17;;;;;;;;;;;;;;;2.68;100.00;98381.66;1595907;89;26174;-84
2022/01/28 13:41:50;;;;;;;;;;;;;;;2.68;100.00;98384.24;1597141;89;25333;-84
2022/01/28 13:44:22;;;;;;;;;;;;;;;2.68;100.00;98382.95;1594118;89;20356;-84
2022/01/28 13:46:58;;;;;;;;;;;;;;;2.68;100.00;98390.70;1599584;88;25166;-84
2022/01/28 13:49:28;;;;;;;;;;;;;;;2.68;100.00;98403.62;1594140;89;22728;-84
2022/01/28 13:51:54;;;;;;;;;;;;;;;2.69;100.00;98414.35;1593821;89;26077;-84
2022/01/28 13:54:23;;;;;;;;;;;;;;;2.70;100.00;98408.29;1593617;89;24426;-84
2022/01/28 13:56:53;;;;;;;;;;;;;;;2.71;100.00;98422.89;1585450;89;20199;-83
2022/01/28 13:59:26;;;;;;;;;;;;;;;2.69;100.00;98413.06;1588958;89;25098;-84
2022/01/28 14:01:54;;;;;;;;;;;;;;;2.69;100.00;98420.81;1594840;89;22736;-83
2022/01/28 14:04:32;;;;;;;;;;;;;;;2.71;100.00;98415.14;1586239;89;26081;-84
2022/01/28 14:07:00;;;;;;;;;;;;;;;2.71;100.00;98425.48;1592796;89;24548;-84
2022/01/28 14:09:27;;;;;;;;;;;;;;;2.74;100.00;98430.96;1591105;88;20474;-83
2022/01/28 14:12:00;;;;;;;;;;;;;;;2.74;100.00;98438.27;1574567;89;25007;-84
2022/01/28 14:14:40;;;;;;;;;;;;;;;2.73;100.00;98448.66;1575769;90;22276;-84
2022/01/28 14:17:03;;;;;;;;;;;;;;;2.71;100.00;98455.19;1574267;90;26044;-84